Time;durP1;ratioP1;P1;durP2;ratioP2;P2;SDS_P1;SDS_P2;PMS_P1;PMS_P2;Temp;Humidity;BMP_temperature;BMP_pressure;BME280_temperature;BME280_humidity;BME280_pressure;Samples;Min_cycle;Max_cycle;Signal;HPM_P1;HPM_P2
2022/08/27 00:00:13;;;;;;;7.10;3.63;;;;;;;14.95;100.00;65752.31;5114059;28;20181;-69
2022/08/27 00:02:40;;;;;;;4.67;4.33;;;;;;;;;;5113797;28;20181;-69
2022/08/27 00:05:07;;;;;;;3.30;3.20;;;;;;;;;;5112480;28;20217;-69
2022/08/27 00:07:34;;;;;;;3.30;3.00;;;;;;;14.97;100.00;65759.75;5113182;28;20237;-69
2022/08/27 00:10:00;;;;;;;3.40;3.30;;;;;;;15.01;100.00;65764.22;5111563;28;20244;-69
2022/08/27 00:12:27;;;;;;;5.97;3.30;;;;;;;15.02;100.00;65760.09;5113038;28;20595;-70
2022/08/27 00:14:53;;;;;;;3.33;3.20;;;;;;;15.04;100.00;65759.16;5114079;28;20224;-69
2022/08/27 00:17:20;;;;;;;3.53;3.37;;;;;;;15.03;100.00;65760.66;5113713;28;20243;-69
2022/08/27 00:19:46;;;;;;;3.10;3.00;;;;;;;15.08;100.00;65771.47;5114061;28;20185;-69
2022/08/27 00:22:13;;;;;;;6.17;3.80;;;;;;;15.05;100.00;65762.88;5113999;28;20534;-69
2022/08/27 00:24:40;;;;;;;3.13;2.93;;;;;;;;;;5113124;28;20273;-69
2022/08/27 00:27:14;;;;;;;4.50;2.93;;;;;;;15.07;100.00;65770.91;5114213;28;20600;-69
2022/08/27 00:29:40;;;;;;;2.43;2.23;;;;;;;;;;5110546;28;20641;-69
2022/08/27 00:32:07;;;;;;;4.17;2.77;;;;;;;;;;5113707;28;20232;-69
2022/08/27 00:34:34;;;;;;;3.00;2.90;;;;;;;15.08;100.00;65766.78;5111797;28;20658;-69
2022/08/27 00:37:02;;;;;;;2.67;2.47;;;;;;;15.10;100.00;65766.41;5113707;28;20216;-69
2022/08/27 00:39:29;;;;;;;6.43;3.57;;;;;;;15.17;100.00;65773.06;5113827;28;20216;-69
2022/08/27 00:41:55;;;;;;;2.93;2.83;;;;;;;15.13;100.00;65771.78;5112156;28;20225;-69
2022/08/27 00:44:21;;;;;;;4.13;3.73;;;;;;;15.18;100.00;65782.59;5110568;28;20608;-69
2022/08/27 00:46:55;;;;;;;5.30;3.50;;;;;;;15.16;100.00;65767.28;5113460;28;20205;-69
2022/08/27 00:49:26;;;;;;;4.70;3.17;;;;;;;15.17;100.00;65775.69;5113991;28;20689;-69
2022/08/27 00:51:59;;;;;;;2.90;2.90;;;;;;;15.17;100.00;65773.63;5113759;28;20174;-69
2022/08/27 00:54:27;;;;;;;3.10;2.80;;;;;;;15.11;100.00;65766.94;5112867;28;20185;-69
2022/08/27 00:56:53;;;;;;;4.43;3.23;;;;;;;;;;5113374;28;20236;-69
2022/08/27 00:59:22;;;;;;;4.63;2.90;;;;;;;15.09;100.00;65765.28;5113697;28;20587;-69
2022/08/27 01:04:38;;;;;;;3.17;3.07;;;;;;;15.15;100.00;65763.56;5111408;28;20662;-69
2022/08/27 01:07:05;;;;;;;5.70;3.37;;;;;;;15.13;100.00;65774.94;5113876;28;20232;-69
2022/08/27 01:09:31;;;;;;;2.73;2.63;;;;;;;;;;5113842;28;20221;-69
2022/08/27 01:11:58;;;;;;;7.03;3.17;;;;;;;;;;5113300;28;20224;-69
2022/08/27 01:14:25;;;;;;;2.70;2.70;;;;;;;14.87;100.00;65740.81;5113423;28;20280;-69
2022/08/27 01:16:53;;;;;;;3.00;2.80;;;;;;;;;;5117088;28;20638;-69
2022/08/27 01:19:32;;;;;;;4.47;2.87;;;;;;;;;;5117066;28;20267;-68
2022/08/27 01:22:06;;;;;;;3.50;3.13;;;;;;;;;;5115602;28;20189;-69
2022/08/27 01:24:40;;;;;;;6.83;2.93;;;;;;;14.71;100.00;65723.00;5117614;28;20184;-69
2022/08/27 01:27:12;;;;;;;3.10;2.77;;;;;;;14.74;100.00;65721.66;5117473;28;20254;-69
2022/08/27 01:29:41;;;;;;;4.93;3.90;;;;;;;14.71;100.00;65723.53;5116802;28;20215;-69
2022/08/27 01:32:11;;;;;;;5.53;2.83;;;;;;;14.73;100.00;65720.00;5115806;28;20224;-69
2022/08/27 01:34:38;;;;;;;6.70;3.50;;;;;;;14.59;100.00;65710.75;5117020;28;20261;-69
2022/08/27 01:37:05;;;;;;;6.73;3.03;;;;;;;14.58;100.00;65704.44;5116987;28;20240;-69
2022/08/27 01:39:38;;;;;;;3.40;3.30;;;;;;;14.56;100.00;65706.88;5117265;28;20228;-69
2022/08/27 01:42:07;;;;;;;3.43;3.10;;;;;;;;;;5115774;28;20197;-69
2022/08/27 01:44:41;;;;;;;3.20;3.10;;;;;;;;;;5116653;28;20216;-69
2022/08/27 01:47:07;;;;;;;9.43;2.83;;;;;;;;;;5116725;28;20772;-69
2022/08/27 01:49:33;;;;;;;3.03;2.83;;;;;;;14.65;100.00;65722.13;5116441;28;20243;-69
2022/08/27 01:52:00;;;;;;;5.40;3.57;;;;;;;;;;5115922;28;20625;-69
2022/08/27 01:54:26;;;;;;;2.80;2.63;;;;;;;14.66;100.00;65725.84;5116424;28;20340;-69
2022/08/27 01:56:53;;;;;;;2.83;2.77;;;;;;;14.64;100.00;65710.53;5116624;28;20632;-69
2022/08/27 01:59:19;;;;;;;2.53;2.43;;;;;;;14.64;100.00;65723.59;5116350;28;20181;-69
2022/08/27 02:01:46;;;;;;;2.30;2.10;;;;;;;14.55;100.00;65706.31;5114476;28;20242;-69
2022/08/27 02:04:12;;;;;;;8.57;2.90;;;;;;;14.57;100.00;65716.38;5116799;28;20181;-69
2022/08/27 02:06:39;;;;;;;3.70;2.67;;;;;;;14.61;100.00;65714.50;5116136;28;20248;-69
2022/08/27 02:09:05;;;;;;;3.23;2.30;;;;;;;14.55;100.00;65708.91;5116088;28;20639;-69
2022/08/27 02:11:32;;;;;;;3.10;2.83;;;;;;;14.58;100.00;65709.66;5114390;28;20331;-70
2022/08/27 02:13:58;;;;;;;4.63;2.73;;;;;;;14.58;100.00;65709.66;5116335;28;20690;-69
2022/08/27 02:16:25;;;;;;;2.07;1.93;;;;;;;14.58;100.00;65714.88;5115892;28;20236;-69
2022/08/27 02:18:53;;;;;;;3.33;3.00;;;;;;;;;;5115924;28;20185;-69
2022/08/27 02:21:21;;;;;;;2.50;2.40;;;;;;;;;;5115347;28;20186;-69
2022/08/27 02:23:47;;;;;;;1.73;1.73;;;;;;;14.59;100.00;65710.75;5115816;28;20273;-69
2022/08/27 02:26:13;;;;;;;3.80;2.43;;;;;;;;;;5115854;28;20291;-69
2022/08/27 02:28:40;;;;;;;1.90;1.80;;;;;;;14.56;100.00;65712.63;5115788;28;20185;-69
2022/08/27 02:31:07;;;;;;;5.50;2.80;;;;;;;14.54;100.00;65705.19;5115153;28;20636;-69
2022/08/27 02:33:33;;;;;;;2.20;2.10;;;;;;;14.58;100.00;65711.72;5115660;28;20660;-69
2022/08/27 02:35:59;;;;;;;3.20;2.30;;;;;;;;;;5115555;28;20185;-69
2022/08/27 02:38:28;;;;;;;2.67;2.57;;;;;;;;;;5115577;28;20193;-69
2022/08/27 02:40:54;;;;;;;3.07;1.90;;;;;;;14.66;100.00;65717.44;5114975;28;20216;-70
2022/08/27 02:43:20;;;;;;;3.07;2.80;;;;;;;;;;5115501;28;20213;-69
2022/08/27 02:45:50;;;;;;;5.93;2.43;;;;;;;14.67;100.00;65721.16;5115608;28;20217;-69
2022/08/27 02:48:17;;;;;;;5.23;2.33;;;;;;;;;;5115352;28;20213;-69
2022/08/27 02:50:44;;;;;;;2.57;2.47;;;;;;;14.73;100.00;65733.06;5113432;28;20678;-70
2022/08/27 02:53:10;;;;;;;1.83;1.70;;;;;;;;;;5115294;28;20277;-69
2022/08/27 02:55:36;;;;;;;5.83;2.00;;;;;;;;;;5115234;28;20217;-69
2022/08/27 02:58:03;;;;;;;2.13;2.03;;;;;;;;;;5115104;28;20284;-69
2022/08/27 03:00:30;;;;;;;3.03;1.97;;;;;;;;;;5113814;28;20221;-69
2022/08/27 03:02:56;;;;;;;2.10;2.00;;;;;;;14.73;100.00;65731.00;5115063;28;20213;-69
2022/08/27 03:05:24;;;;;;;1.60;1.60;;;;;;;14.78;100.00;65725.56;5115384;28;20611;-69
2022/08/27 03:07:50;;;;;;;2.00;1.90;;;;;;;;;;5114981;28;20726;-69
2022/08/27 03:10:18;;;;;;;1.67;1.53;;;;;;;;;;5114102;28;20287;-69
2022/08/27 03:12:44;;;;;;;2.87;2.67;;;;;;;14.76;100.00;65731.16;5114861;28;20220;-69
2022/08/27 03:15:12;;;;;;;2.07;1.97;;;;;;;;;;5114813;28;20217;-69
2022/08/27 03:20:24;;;;;;;2.70;2.00;;;;;;;;;;5114280;28;20276;-69
2022/08/27 03:22:51;;;;;;;2.50;2.03;;;;;;;14.78;100.00;65725.56;5114948;28;20205;-69
2022/08/27 03:25:18;;;;;;;4.33;2.37;;;;;;;;;;5114965;28;20213;-69
2022/08/27 03:27:44;;;;;;;2.40;2.13;;;;;;;14.83;100.00;65731.13;5114534;28;20295;-69
2022/08/27 03:30:13;;;;;;;1.97;1.83;;;;;;;;;;5113690;28;20243;-70
2022/08/27 03:32:39;;;;;;;2.17;2.07;;;;;;;;;;5114498;28;20667;-69
2022/08/27 03:35:06;;;;;;;2.13;2.03;;;;;;;14.75;100.00;65727.44;5114498;28;20223;-69
2022/08/27 03:37:33;;;;;;;1.50;1.50;;;;;;;;;;5113559;28;20702;-69
2022/08/27 03:39:59;;;;;;;3.93;1.97;;;;;;;14.78;100.00;65733.94;5114397;28;20703;-69
2022/08/27 03:42:26;;;;;;;2.00;1.90;;;;;;;;;;5113324;28;20197;-69
2022/08/27 03:44:52;;;;;;;1.47;1.37;;;;;;;14.88;100.00;65749.19;5114632;28;20252;-69
2022/08/27 03:47:19;;;;;;;2.17;2.07;;;;;;;;;;5114487;28;20228;-69
2022/08/27 03:49:45;;;;;;;1.50;1.50;;;;;;;14.77;100.00;65732.28;5114142;28;20274;-69
2022/08/27 03:52:13;;;;;;;1.93;1.83;;;;;;;;;;5113043;28;20563;-69
2022/08/27 03:54:39;;;;;;;2.03;1.90;;;;;;;;;;5114693;28;20231;-69
2022/08/27 03:57:06;;;;;;;2.70;2.00;;;;;;;14.78;100.00;65736.56;5114179;28;20296;-69
2022/08/27 03:59:32;;;;;;;1.87;1.77;;;;;;;;;;5114088;28;20267;-69
2022/08/27 04:01:59;;;;;;;6.67;2.20;;;;;;;;;;5112159;28;20203;-69
2022/08/27 04:04:26;;;;;;;1.90;1.80;;;;;;;14.77;100.00;65729.66;5113890;28;20181;-69
2022/08/27 04:06:53;;;;;;;2.70;2.60;;;;;;;;;;5113917;28;20304;-69
2022/08/27 04:09:23;;;;;;;5.03;2.53;;;;;;;14.74;100.00;65729.50;5114180;28;20173;-69
2022/08/27 04:11:50;;;;;;;2.10;2.03;;;;;;;;;;5112820;28;20235;-69
2022/08/27 04:14:16;;;;;;;2.03;2.03;;;;;;;14.71;100.00;65723.53;5113878;28;20217;-69
2022/08/27 04:16:53;;;;;;;2.33;2.13;;;;;;;;;;5114332;28;20731;-69
2022/08/27 04:19:20;;;;;;;1.50;1.50;;;;;;;;;;5113817;28;20193;-69
2022/08/27 04:21:52;;;;;;;2.40;2.30;;;;;;;;;;5112866;28;20197;-69
2022/08/27 04:24:18;;;;;;;2.00;1.80;;;;;;;;;;5114346;28;20592;-68
2022/08/27 04:26:46;;;;;;;1.90;1.90;;;;;;;14.73;100.00;65725.78;5113635;28;20244;-69
2022/08/27 04:29:12;;;;;;;2.20;2.20;;;;;;;14.74;100.00;65729.50;5112751;28;20224;-69
2022/08/27 04:31:39;;;;;;;2.37;2.10;;;;;;;;;;5113856;28;20753;-68
2022/08/27 04:34:06;;;;;;;2.73;2.53;;;;;;;;;;5114222;28;20575;-68
2022/08/27 04:36:32;;;;;;;2.33;2.23;;;;;;;;;;5113833;28;20217;-69
2022/08/27 04:38:59;;;;;;;1.80;1.80;;;;;;;14.68;100.00;65719.66;5112439;28;20228;-69
2022/08/27 04:41:26;;;;;;;2.00;1.90;;;;;;;;;;5113867;28;20177;-69
2022/08/27 04:43:55;;;;;;;2.00;1.83;;;;;;;14.67;100.00;65713.31;5113581;28;20235;-69
2022/08/27 04:46:26;;;;;;;1.97;1.87;;;;;;;;;;5113466;28;20633;-69
2022/08/27 04:48:54;;;;;;;2.33;2.07;;;;;;;14.68;100.00;65719.66;5115823;28;20264;-69
2022/08/27 04:51:20;;;;;;;1.80;1.80;;;;;;;;;;5118173;28;20680;-69
2022/08/27 04:53:48;;;;;;;2.50;1.97;;;;;;;14.66;100.00;65720.63;5100190;28;20228;-69
2022/08/27 04:56:16;;;;;;;3.47;2.30;;;;;;;;;;5117489;28;20201;-69
2022/08/27 04:58:42;;;;;;;2.60;2.50;;;;;;;;;;5116413;28;20217;-70
2022/08/27 05:01:15;;;;;;;1.70;1.70;;;;;;;14.72;100.00;65726.72;5116988;28;20220;-69
2022/08/27 05:03:42;;;;;;;1.87;1.77;;;;;;;;;;5117739;28;20580;-69
2022/08/27 05:06:08;;;;;;;2.23;2.10;;;;;;;14.74;100.00;65726.34;5117309;28;20245;-69
2022/08/27 05:08:35;;;;;;;2.40;2.20;;;;;;;14.80;100.00;65733.03;5117633;28;20208;-69
2022/08/27 05:11:01;;;;;;;2.63;1.77;;;;;;;;;;5115921;28;20240;-69
2022/08/27 05:13:28;;;;;;;2.07;1.97;;;;;;;14.79;100.00;65737.13;5117214;28;20209;-69
2022/08/27 05:16:06;;;;;;;2.67;2.03;;;;;;;14.77;100.00;65729.66;5117395;28;20220;-69
2022/08/27 05:18:34;;;;;;;2.60;2.60;;;;;;;14.78;100.00;65739.16;5117153;28;20188;-69
2022/08/27 05:21:32;;;;;;;4.57;2.50;;;;;;;;;;5117426;28;20169;-69
2022/08/27 05:24:00;;;;;;;2.10;2.00;;;;;;;14.83;100.00;65736.91;5117606;28;20260;-69
2022/08/27 05:26:28;;;;;;;2.07;1.93;;;;;;;14.83;100.00;65738.97;5117202;28;20201;-69
2022/08/27 05:28:57;;;;;;;2.67;2.57;;;;;;;14.78;100.00;65725.56;5115931;28;20181;-69
2022/08/27 05:31:24;;;;;;;2.40;2.30;;;;;;;14.86;100.00;65739.69;5117107;28;20266;-69
2022/08/27 05:33:50;;;;;;;2.17;1.93;;;;;;;14.82;100.00;65735.25;5116885;28;20189;-69
2022/08/27 05:36:19;;;;;;;2.23;2.20;;;;;;;;;;5116703;28;20212;-69
2022/08/27 05:38:50;;;;;;;5.63;2.30;;;;;;;14.79;100.00;65731.91;5116584;28;20231;-71
2022/08/27 05:41:19;;;;;;;4.10;2.33;;;;;;;14.75;100.00;65728.00;5096316;28;20220;-69
2022/08/27 05:43:46;;;;;;;4.70;2.30;;;;;;;14.75;100.00;65735.28;5096252;28;20259;-69
2022/08/27 05:46:19;;;;;;;2.63;2.43;;;;;;;14.73;100.00;65728.41;5096110;28;20206;-69
2022/08/27 05:48:46;;;;;;;2.57;2.37;;;;;;;14.73;100.00;65725.78;5096163;28;20255;-69
2022/08/27 05:51:19;;;;;;;2.30;2.20;;;;;;;14.73;100.00;65720.56;5115648;28;20198;-69
2022/08/27 05:53:54;;;;;;;2.00;1.90;;;;;;;14.84;100.00;65732.22;5117074;28;20212;-69
2022/08/27 05:56:23;;;;;;;2.57;2.47;;;;;;;14.77;100.00;65730.22;5116364;28;20254;-69
2022/08/27 06:01:39;;;;;;;2.93;2.13;;;;;;;14.81;100.00;65734.69;5116644;28;20197;-69
2022/08/27 06:04:06;;;;;;;1.80;1.80;;;;;;;;;;5117013;28;20615;-69
2022/08/27 06:06:37;;;;;;;2.67;2.47;;;;;;;14.84;100.00;65742.69;5116365;28;20209;-69
2022/08/27 06:09:04;;;;;;;4.50;2.20;;;;;;;14.81;100.00;65741.97;5115202;28;20576;-69
2022/08/27 06:11:31;;;;;;;1.90;1.80;;;;;;;;;;5116013;28;20217;-69
2022/08/27 06:13:58;;;;;;;2.40;2.37;;;;;;;;;;5116095;28;20185;-69
2022/08/27 06:16:24;;;;;;;2.43;1.80;;;;;;;14.83;100.00;65739.50;5115949;28;20209;-69
2022/08/27 06:18:51;;;;;;;2.00;1.90;;;;;;;14.82;100.00;65737.84;5115731;28;20250;-69
2022/08/27 06:21:18;;;;;;;1.40;1.40;;;;;;;14.82;100.00;65745.69;5115918;28;20237;-69
2022/08/27 06:23:50;;;;;;;2.00;2.00;;;;;;;14.83;100.00;65736.34;5115879;28;20170;-69
2022/08/27 06:26:18;;;;;;;2.23;2.13;;;;;;;14.90;100.00;65746.19;5115720;28;20208;-69
2022/08/27 06:28:45;;;;;;;2.20;2.20;;;;;;;;;;5115234;28;20206;-69
2022/08/27 06:31:17;;;;;;;1.70;1.70;;;;;;;14.88;100.00;65743.97;5115978;28;20197;-69
2022/08/27 06:33:46;;;;;;;1.90;1.80;;;;;;;14.89;100.00;65735.19;5116028;28;20277;-69
2022/08/27 06:36:14;;;;;;;2.20;2.00;;;;;;;;;;5116147;28;20205;-70
2022/08/27 06:38:43;;;;;;;1.83;1.73;;;;;;;14.96;100.00;65752.88;5114461;28;20716;-69
2022/08/27 06:41:16;;;;;;;1.87;1.87;;;;;;;14.95;100.00;65743.91;5115585;28;20169;-69
2022/08/27 06:43:49;;;;;;;1.83;1.70;;;;;;;;;;5115789;28;20208;-69
2022/08/27 06:46:17;;;;;;;2.50;1.63;;;;;;;;;;5115387;28;20693;-69
2022/08/27 06:48:44;;;;;;;1.73;1.73;;;;;;;15.01;100.00;65756.38;5114291;28;20200;-70
2022/08/27 06:51:18;;;;;;;4.00;1.50;;;;;;;;;;5115779;28;20201;-69
2022/08/27 06:53:46;;;;;;;2.13;2.07;;;;;;;;;;5115840;28;20684;-69
2022/08/27 06:56:16;;;;;;;1.57;1.57;;;;;;;15.00;100.00;65754.69;5115213;28;20242;-69
2022/08/27 06:58:43;;;;;;;1.53;1.50;;;;;;;;;;5114544;28;20196;-70
2022/08/27 07:01:12;;;;;;;1.73;1.70;;;;;;;15.02;100.00;65759.56;5115447;28;20522;-69
2022/08/27 07:03:42;;;;;;;2.30;2.00;;;;;;;15.06;100.00;65764.00;5115093;28;20309;-69
2022/08/27 07:06:10;;;;;;;1.67;1.57;;;;;;;15.13;100.00;65769.72;5115007;28;20250;-69
2022/08/27 07:08:38;;;;;;;1.60;1.60;;;;;;;15.11;100.00;65766.94;5113818;28;20332;-69
2022/08/27 07:11:05;;;;;;;2.40;1.93;;;;;;;;;;5114843;28;20732;-69
2022/08/27 07:13:32;;;;;;;1.80;1.80;;;;;;;15.12;100.00;65768.63;5114882;28;20189;-69
2022/08/27 07:16:02;;;;;;;1.83;1.80;;;;;;;15.14;100.00;65770.84;5114753;28;20181;-69
2022/08/27 07:18:29;;;;;;;2.03;1.93;;;;;;;15.18;100.00;65768.94;5114522;28;20845;-69
2022/08/27 07:20:56;;;;;;;1.50;1.40;;;;;;;15.19;100.00;65775.28;5115057;28;20215;-69
2022/08/27 07:23:23;;;;;;;9.83;2.20;;;;;;;15.23;100.00;65779.75;5114737;28;20173;-69
2022/08/27 07:25:49;;;;;;;1.83;1.83;;;;;;;;;;5114867;28;20192;-69
2022/08/27 07:28:16;;;;;;;1.77;1.77;;;;;;;15.26;100.00;65783.63;5112634;28;20224;-69
2022/08/27 07:30:42;;;;;;;2.23;2.13;;;;;;;15.28;100.00;65788.47;5113735;28;20201;-69
2022/08/27 07:33:09;;;;;;;1.97;1.90;;;;;;;;;;5114811;28;20601;-69
2022/08/27 07:35:36;;;;;;;2.03;1.90;;;;;;;15.47;100.00;65800.66;5114519;28;20178;-69
2022/08/27 07:38:02;;;;;;;1.90;1.83;;;;;;;;;;5113271;28;20205;-69
2022/08/27 07:40:29;;;;;;;1.90;1.80;;;;;;;15.54;100.00;65816.31;5114919;28;20251;-69
2022/08/27 07:45:59;;;;;;;1.90;1.90;;;;;;;;;;5051464;28;20603;-69
2022/08/27 07:48:26;;;;;;;1.97;1.97;;;;;;;15.55;100.00;65815.38;5101573;28;20720;-69
2022/08/27 07:50:53;;;;;;;2.23;2.13;;;;;;;15.52;100.00;65746.63;5114024;28;20551;-69
2022/08/27 07:53:20;;;;;;;1.87;1.77;;;;;;;;;;5114455;28;20552;-69
2022/08/27 07:55:46;;;;;;;1.87;1.87;;;;;;;15.59;100.00;65811.97;5114787;28;20227;-69
2022/08/27 07:58:14;;;;;;;1.87;1.87;;;;;;;15.64;100.00;65824.84;5113052;28;20265;-69
2022/08/27 08:00:44;;;;;;;6.30;2.40;;;;;;;15.74;100.00;65838.06;5114570;28;20174;-69
2022/08/27 08:03:12;;;;;;;1.83;1.77;;;;;;;15.68;100.00;65822.00;5113980;28;20238;-69
2022/08/27 08:05:42;;;;;;;1.47;1.47;;;;;;;15.68;100.00;65835.09;5095930;28;20188;-69
2022/08/27 08:08:09;;;;;;;2.20;2.00;;;;;;;15.76;100.00;65837.66;5113095;28;20653;-69
2022/08/27 08:10:36;;;;;;;2.10;1.97;;;;;;;;;;5114008;28;20663;-70
2022/08/27 08:13:04;;;;;;;2.17;2.17;;;;;;;15.85;100.00;65842.44;5114218;28;20181;-69
2022/08/27 08:15:30;;;;;;;1.70;1.70;;;;;;;;;;5114401;28;20231;-69
2022/08/27 08:17:57;;;;;;;2.50;2.40;;;;;;;15.90;100.00;65853.25;5111540;28;20258;-69
2022/08/27 08:20:23;;;;;;;2.07;2.07;;;;;;;15.82;100.00;65839.66;5112064;28;20189;-69
2022/08/27 08:23:10;;;;;;;1.77;1.67;;;;;;;15.83;100.00;65845.44;5113881;28;20256;-69
2022/08/27 08:25:36;;;;;;;1.80;1.70;;;;;;;15.83;100.00;65840.22;5113755;28;20599;-69
2022/08/27 08:28:04;;;;;;;2.60;2.50;;;;;;;15.87;100.00;65852.53;5113586;28;20258;-69
2022/08/27 08:30:30;;;;;;;2.10;1.73;;;;;;;15.84;100.00;65849.19;5113007;28;20196;-69
2022/08/27 08:33:01;;;;;;;2.93;1.93;;;;;;;15.84;99.94;65854.41;5113955;28;20188;-69
2022/08/27 08:35:27;;;;;;;4.53;2.10;;;;;;;15.88;100.00;65846.34;5113601;28;20624;-69
2022/08/27 08:38:06;;;;;;;1.80;1.70;;;;;;;;;;5111774;28;20629;-70
2022/08/27 08:40:37;;;;;;;22.07;1.87;;;;;;;15.98;100.00;65864.78;5111279;28;20234;-69
2022/08/27 08:43:05;;;;;;;2.43;2.07;;;;;;;;;;5110816;28;20200;-69
2022/08/27 08:45:35;;;;;;;2.17;2.17;;;;;;;16.01;99.76;65870.75;5111345;28;20580;-71
2022/08/27 08:48:06;;;;;;;3.50;1.63;;;;;;;15.97;99.97;65861.03;5113062;28;20219;-69
2022/08/27 08:50:49;;;;;;;1.90;1.90;;;;;;;16.00;99.77;65863.81;5113759;28;20242;-69
2022/08/27 08:53:21;;;;;;;5.77;2.17;;;;;;;;;;5108609;28;20181;-69
2022/08/27 08:55:53;;;;;;;1.83;1.73;;;;;;;16.05;99.67;65872.56;5113365;28;20517;-69
2022/08/27 08:58:30;;;;;;;2.47;2.37;;;;;;;16.07;99.64;65874.78;5113426;28;20226;-70
2022/08/27 09:00:58;;;;;;;1.70;1.70;;;;;;;;;;5112574;28;20181;-70
2022/08/27 09:03:26;;;;;;;2.10;2.10;;;;;;;16.11;99.34;65871.41;5113621;28;20276;-69
2022/08/27 09:06:04;;;;;;;1.97;1.70;;;;;;;16.13;98.99;65878.31;5113541;28;20200;-70
2022/08/27 09:08:32;;;;;;;2.40;1.87;;;;;;;;;;5113940;28;20169;-69
2022/08/27 09:11:30;;;;;;;2.23;2.03;;;;;;;16.18;98.85;65887.06;5110465;28;20299;-69
2022/08/27 09:14:14;;;;;;;1.60;1.53;;;;;;;16.26;97.96;65887.00;5111248;28;20181;-69
2022/08/27 09:16:40;;;;;;;2.47;1.93;;;;;;;16.28;98.45;65894.44;5113530;28;20201;-69
2022/08/27 09:19:07;;;;;;;1.70;1.60;;;;;;;16.35;98.64;65897.00;5113445;28;20185;-69
2022/08/27 09:21:41;;;;;;;3.53;1.90;;;;;;;;;;5111720;28;20204;-69
2022/08/27 09:24:18;;;;;;;2.13;2.03;;;;;;;;;;5113146;28;20194;-69
2022/08/27 09:26:45;;;;;;;3.30;2.47;;;;;;;16.47;97.75;65915.63;5113930;28;20698;-69
2022/08/27 09:29:15;;;;;;;3.30;1.80;;;;;;;16.57;96.68;65926.19;5113485;28;20177;-69
2022/08/27 09:31:51;;;;;;;1.63;1.63;;;;;;;16.53;96.95;65922.31;5111007;28;20201;-69
2022/08/27 09:34:18;;;;;;;4.87;2.40;;;;;;;;;;5109570;28;20231;-69
2022/08/27 09:36:53;;;;;;;6.73;2.10;;;;;;;;;;5114562;28;20217;-69
2022/08/27 09:39:39;;;;;;;1.90;1.80;;;;;;;16.68;97.18;65938.47;5116784;28;20181;-69
2022/08/27 09:42:06;;;;;;;1.90;1.80;;;;;;;16.78;96.93;65952.25;5117194;28;20215;-69
2022/08/27 09:44:45;;;;;;;2.03;1.97;;;;;;;16.84;96.49;65950.50;5113665;28;20193;-69
2022/08/27 09:47:19;;;;;;;1.40;1.20;;;;;;;16.89;95.87;65953.47;5116662;28;20213;-69
2022/08/27 09:49:46;;;;;;;1.73;1.73;;;;;;;16.98;95.29;65966.13;5113865;28;20189;-69
2022/08/27 09:52:32;;;;;;;4.43;1.90;;;;;;;;;;5116599;28;20246;-69
2022/08/27 09:55:04;;;;;;;2.20;2.00;;;;;;;17.04;94.03;65970.19;5116566;28;20588;-69
2022/08/27 09:57:39;;;;;;;3.97;1.93;;;;;;;17.08;93.92;65990.38;5115134;28;20205;-69
2022/08/27 10:00:12;;;;;;;1.53;1.53;;;;;;;17.16;93.25;65991.44;5102322;28;20246;-69
2022/08/27 10:02:52;;;;;;;2.67;1.77;;;;;;;17.16;93.63;65985.63;5114490;28;20190;-69
2022/08/27 10:05:23;;;;;;;1.60;1.60;;;;;;;;;;5110168;28;20193;-70
2022/08/27 10:07:55;;;;;;;1.43;1.43;;;;;;;17.21;93.08;65991.75;5114263;28;20270;-69
2022/08/27 10:10:36;;;;;;;3.67;1.70;;;;;;;17.25;92.85;66001.47;5116518;28;20173;-69
2022/08/27 10:13:14;;;;;;;3.70;1.70;;;;;;;17.32;92.50;66011.91;5116281;28;20215;-68
2022/08/27 10:16:20;;;;;;;3.23;2.10;;;;;;;17.33;92.42;66012.44;5116087;28;20297;-68
2022/08/27 10:18:55;;;;;;;2.00;1.63;;;;;;;17.34;91.93;66014.13;5078141;28;20262;-69
2022/08/27 10:21:28;;;;;;;1.87;1.87;;;;;;;;;;5116161;28;20222;-69
2022/08/27 10:24:15;;;;;;;5.57;2.27;;;;;;;17.36;91.48;66007.94;5114077;28;20189;-69
2022/08/27 10:27:18;;;;;;;1.93;1.90;;;;;;;17.45;90.54;66017.97;5097079;28;20257;-69
2022/08/27 10:29:50;;;;;;;2.00;1.90;;;;;;;;;;5116117;28;20177;-69
2022/08/27 10:32:28;;;;;;;4.63;1.77;;;;;;;;;;5115941;28;20219;-69
2022/08/27 10:34:58;;;;;;;1.67;1.67;;;;;;;;;;5115122;28;20546;-70
2022/08/27 10:37:51;;;;;;;1.63;1.63;;;;;;;17.49;90.64;66027.09;5110894;28;20205;-69
2022/08/27 10:40:27;;;;;;;1.60;1.50;;;;;;;17.56;91.19;66035.47;5115757;28;20169;-69
2022/08/27 10:43:19;;;;;;;1.77;1.53;;;;;;;17.65;90.08;66047.59;5115828;28;20226;-69
2022/08/27 10:45:49;;;;;;;6.37;1.50;;;;;;;17.69;90.16;66051.47;5114770;28;20177;-70
2022/08/27 10:48:24;;;;;;;1.80;1.40;;;;;;;;;;5114142;28;20277;-69
2022/08/27 10:50:58;;;;;;;1.70;1.30;;;;;;;17.82;87.91;66066.00;5115384;28;20177;-69
2022/08/27 10:53:46;;;;;;;1.30;1.30;;;;;;;17.81;87.44;66057.03;5113157;28;20219;-69
2022/08/27 10:56:19;;;;;;;1.30;1.30;;;;;;;17.83;86.36;66064.50;5094847;28;20202;-69
2022/08/27 10:59:01;;;;;;;1.30;1.30;;;;;;;17.88;85.89;66062.75;5094337;28;20188;-69
2022/08/27 11:01:39;;;;;;;1.40;1.40;;;;;;;17.96;85.33;66078.44;5106614;28;20187;-70
2022/08/27 11:04:38;;;;;;;1.23;1.23;;;;;;;18.07;84.26;66085.44;5113392;28;20663;-69
2022/08/27 11:07:20;;;;;;;1.60;1.50;;;;;;;18.04;83.72;66090.00;5091610;28;20690;-69
2022/08/27 11:09:55;;;;;;;1.73;1.70;;;;;;;;;;5115863;28;20598;-68
2022/08/27 11:12:34;;;;;;;1.30;1.30;;;;;;;;;;5108841;28;20248;-69
2022/08/27 11:15:04;;;;;;;2.00;1.40;;;;;;;18.20;84.27;66104.66;5106635;28;20712;-70
2022/08/27 11:17:55;;;;;;;1.43;1.43;;;;;;;;;;5108624;28;20545;-70
2022/08/27 11:20:24;;;;;;;1.87;1.77;;;;;;;;;;5111927;28;20234;-69
2022/08/27 11:23:15;;;;;;;1.40;1.40;;;;;;;;;;5112256;28;20573;-69
2022/08/27 11:25:46;;;;;;;1.30;1.30;;;;;;;;;;5112542;28;20604;-69
2022/08/27 11:28:13;;;;;;;1.50;1.50;;;;;;;;;;5112851;28;20258;-69
2022/08/27 11:30:40;;;;;;;2.73;1.60;;;;;;;;;;5113074;28;20193;-71
2022/08/27 11:33:27;;;;;;;2.10;2.10;;;;;;;18.26;83.05;66114.53;5107684;28;20201;-69
2022/08/27 11:36:10;;;;;;;1.93;1.83;;;;;;;18.20;83.19;66099.97;5110908;28;20250;-70
2022/08/27 11:38:40;;;;;;;1.60;1.60;;;;;;;;;;5103119;28;20254;-69
2022/08/27 11:41:26;;;;;;;1.40;1.20;;;;;;;;;;5076073;28;20190;-69
2022/08/27 11:43:53;;;;;;;1.40;1.40;;;;;;;;;;5094116;28;20620;-70
2022/08/27 11:46:23;;;;;;;1.43;1.43;;;;;;;18.25;83.17;66110.81;5113170;28;20213;-69
2022/08/27 11:48:58;;;;;;;1.87;1.70;;;;;;;18.33;82.70;66122.34;5093663;28;20189;-69
2022/08/27 11:51:31;;;;;;;1.67;1.67;;;;;;;;;;5112873;28;20201;-69
2022/08/27 11:54:08;;;;;;;1.13;1.13;;;;;;;18.35;82.90;66114.06;5112021;28;20190;-69
2022/08/27 11:56:42;;;;;;;5.00;1.50;;;;;;;18.28;82.34;66116.78;5111879;28;20270;-69
2022/08/27 11:59:11;;;;;;;1.57;1.47;;;;;;;;;;5110756;28;20242;-69
2022/08/27 12:01:39;;;;;;;1.70;1.67;;;;;;;;;;5111516;28;20185;-69
2022/08/27 12:04:06;;;;;;;3.97;1.20;;;;;;;;;;5111715;28;20197;-70
2022/08/27 12:06:48;;;;;;;1.37;1.13;;;;;;;18.28;82.73;66108.88;5111306;28;20204;-69
2022/08/27 12:09:18;;;;;;;1.53;1.50;;;;;;;;;;5110928;28;20197;-69
2022/08/27 12:12:08;;;;;;;3.23;1.20;;;;;;;18.16;82.91;66100.75;5106430;28;20263;-69
2022/08/27 12:14:40;;;;;;;1.23;1.23;;;;;;;;;;5107571;28;20243;-69
2022/08/27 12:17:21;;;;;;;1.60;1.50;;;;;;;18.22;82.68;66107.47;5111329;28;20217;-69
2022/08/27 12:19:47;;;;;;;1.60;1.60;;;;;;;18.17;82.89;66101.88;5112997;28;20539;-69
2022/08/27 12:25:27;;;;;;;1.43;1.43;;;;;;;18.17;82.49;66101.88;5107871;28;20189;-71
2022/08/27 12:28:02;;;;;;;1.73;1.63;;;;;;;18.17;82.72;66096.63;5111853;28;20241;-71
2022/08/27 12:30:32;;;;;;;1.50;1.43;;;;;;;18.18;82.98;66105.63;5113086;28;20210;-72
2022/08/27 12:33:09;;;;;;;1.53;1.43;;;;;;;18.20;83.16;66105.22;5100758;28;20279;-71
2022/08/27 12:35:50;;;;;;;4.70;1.67;;;;;;;;;;5109130;28;20271;-71
2022/08/27 12:38:17;;;;;;;1.30;1.30;;;;;;;;;;5096135;28;20189;-71
2022/08/27 12:40:56;;;;;;;1.30;1.30;;;;;;;18.21;81.41;66097.88;5109637;28;20201;-71
2022/08/27 12:43:28;;;;;;;1.23;1.23;;;;;;;18.24;82.40;66109.13;5111601;28;20261;-71
2022/08/27 12:46:07;;;;;;;4.47;1.30;;;;;;;18.26;82.63;66106.66;5110941;28;20177;-71
2022/08/27 12:48:52;;;;;;;2.30;2.20;;;;;;;18.22;81.40;66102.22;5109975;28;20311;-71
2022/08/27 12:51:26;;;;;;;1.60;1.60;;;;;;;18.36;79.69;66117.84;5112189;28;20193;-71
2022/08/27 12:54:20;;;;;;;2.03;1.93;;;;;;;18.38;80.21;66127.94;5086265;28;20609;-71
2022/08/27 12:57:14;;;;;;;1.53;1.53;;;;;;;;;;5111090;28;20208;-71
2022/08/27 12:59:59;;;;;;;1.70;1.60;;;;;;;;;;5110835;28;20647;-72
2022/08/27 13:02:41;;;;;;;1.30;1.20;;;;;;;;;;5113611;28;20169;-72